Time;durP1;ratioP1;P1;durP2;ratioP2;P2;SDS_P1;SDS_P2;PMS_P1;PMS_P2;Temp;Humidity;BMP_temperature;BMP_pressure;BME280_temperature;BME280_humidity;BME280_pressure;Samples;Min_cycle;Max_cycle;Signal;HPM_P1;HPM_P2
2023/06/19 00:01:48;;;;;;;8.73;6.82;;;;;;;19.86;66.23;96234.53;5117215;28;20131;-68
2023/06/19 00:04:15;;;;;;;9.82;7.03;;;;;;;19.86;66.13;96228.41;5117483;28;20044;-68
2023/06/19 00:06:43;;;;;;;11.05;6.53;;;;;;;19.80;66.10;96229.72;5116939;28;20101;-66
2023/06/19 00:09:10;;;;;;;6.95;6.15;;;;;;;19.76;66.88;96225.66;5117177;28;20096;-68
2023/06/19 00:11:37;;;;;;;9.50;6.20;;;;;;;19.77;66.01;96222.00;5116946;28;20047;-67
2023/06/19 00:14:05;;;;;;;11.73;6.97;;;;;;;19.70;65.86;96227.00;5116855;28;20134;-66
2023/06/19 00:16:33;;;;;;;7.90;6.43;;;;;;;19.70;66.11;96232.28;5116857;28;20488;-68
2023/06/19 00:19:03;;;;;;;7.50;6.03;;;;;;;19.70;65.99;96224.34;5116889;28;20507;-68
2023/06/19 00:21:30;;;;;;;8.98;6.05;;;;;;;19.70;65.78;96227.00;5116828;27;20075;-68
2023/06/19 00:23:58;;;;;;;6.35;5.55;;;;;;;19.65;64.61;96221.19;5116797;28;20382;-66
2023/06/19 00:26:25;;;;;;;10.90;6.18;;;;;;;19.68;65.14;96224.47;5116516;28;20116;-67
2023/06/19 00:28:53;;;;;;;6.97;6.13;;;;;;;19.69;64.97;96212.03;5116684;28;20503;-68
2023/06/19 00:31:21;;;;;;;6.10;5.47;;;;;;;19.72;64.84;96229.53;5116698;28;20043;-66
2023/06/19 00:33:48;;;;;;;6.20;5.60;;;;;;;19.73;64.95;96228.53;5116689;28;20089;-66
2023/06/19 00:36:19;;;;;;;8.40;6.20;;;;;;;19.73;64.30;96224.09;5116439;28;20436;-67
2023/06/19 00:38:47;;;;;;;6.97;6.25;;;;;;;19.70;65.68;96230.50;5116651;28;20424;-67
2023/06/19 00:41:14;;;;;;;7.82;6.10;;;;;;;19.68;65.53;96236.88;5116080;28;20058;-66
2023/06/19 00:43:41;;;;;;;10.20;5.90;;;;;;;19.68;64.77;96232.41;5116405;28;20497;-66
2023/06/19 00:46:09;;;;;;;9.15;6.22;;;;;;;19.67;64.74;96230.75;5116201;27;20382;-66
2023/06/19 00:48:38;;;;;;;11.77;7.20;;;;;;;19.70;65.12;96241.09;5116226;28;20543;-68
2023/06/19 00:51:05;;;;;;;10.30;6.20;;;;;;;19.66;64.70;96238.81;5116237;28;20055;-66
2023/06/19 00:53:33;;;;;;;12.07;6.32;;;;;;;19.65;65.43;96237.13;5116164;28;20051;-66
2023/06/19 00:56:01;;;;;;;7.25;5.80;;;;;;;19.68;64.87;96235.06;5116385;28;20079;-68
2023/06/19 00:58:28;;;;;;;8.85;6.85;;;;;;;19.69;64.68;96228.78;5115967;28;20048;-68
2023/06/19 01:00:57;;;;;;;10.13;6.30;;;;;;;19.69;64.67;96239.41;5115998;28;20043;-68
2023/06/19 01:03:26;;;;;;;7.53;5.68;;;;;;;19.69;64.50;96234.09;5115837;28;20047;-68
2023/06/19 01:05:56;;;;;;;8.10;6.18;;;;;;;19.72;65.01;96230.38;5115869;28;20130;-68
2023/06/19 01:08:40;;;;;;;10.18;6.47;;;;;;;19.74;64.89;96235.56;5115890;28;20043;-68
2023/06/19 01:11:08;;;;;;;7.07;5.72;;;;;;;19.73;64.05;96228.53;5116104;28;20044;-66
2023/06/19 01:13:42;;;;;;;9.18;5.45;;;;;;;19.75;64.22;96231.94;5115740;28;20128;-67
2023/06/19 01:16:11;;;;;;;6.30;5.70;;;;;;;19.74;64.68;96230.25;5115821;28;20047;-68
2023/06/19 01:18:38;;;;;;;8.25;6.03;;;;;;;19.75;63.96;96226.63;5115656;28;20043;-67
2023/06/19 01:21:15;;;;;;;6.03;5.43;;;;;;;19.72;64.03;96230.38;5115581;27;20048;-68
2023/06/19 01:23:45;;;;;;;7.15;5.55;;;;;;;19.76;63.84;96234.47;5115943;27;20050;-67
2023/06/19 01:26:13;;;;;;;7.78;5.40;;;;;;;19.82;63.85;96233.13;5115573;28;20070;-68
2023/06/19 01:28:42;;;;;;;9.98;6.43;;;;;;;19.81;63.91;96236.75;5115485;28;20048;-67
2023/06/19 01:31:14;;;;;;;6.47;5.70;;;;;;;19.85;63.24;96232.03;5115560;28;20047;-66
2023/06/19 01:33:46;;;;;;;6.93;5.50;;;;;;;19.88;63.11;96239.72;5115289;28;20481;-69
2023/06/19 01:36:14;;;;;;;6.40;5.70;;;;;;;19.86;64.08;96241.69;5115374;28;20062;-67
2023/06/19 01:38:45;;;;;;;6.15;5.65;;;;;;;19.86;64.45;96239.84;5115293;28;20533;-67
2023/06/19 01:41:16;;;;;;;6.15;5.57;;;;;;;19.85;64.25;96242.63;5114987;28;20048;-67
2023/06/19 01:43:43;;;;;;;8.27;5.80;;;;;;;19.84;63.63;96239.16;5115148;27;20093;-67
2023/06/19 01:46:10;;;;;;;7.00;5.43;;;;;;;19.82;64.26;96241.94;5115079;28;20055;-66
2023/06/19 01:48:39;;;;;;;8.73;4.93;;;;;;;19.79;63.49;96234.22;5115099;28;20093;-67
2023/06/19 01:51:07;;;;;;;8.60;6.00;;;;;;;19.83;63.67;96235.66;5115119;28;20047;-67
2023/06/19 01:53:34;;;;;;;7.03;4.97;;;;;;;19.81;63.62;96240.22;5115103;27;20062;-66
2023/06/19 01:56:02;;;;;;;7.63;5.63;;;;;;;19.86;63.77;96239.03;5114962;28;20382;-68
2023/06/19 01:58:31;;;;;;;6.85;5.72;;;;;;;19.83;64.21;96234.78;5114975;28;20044;-67
2023/06/19 02:00:58;;;;;;;7.05;5.20;;;;;;;19.78;63.96;96237.00;5114856;28;20055;-67
2023/06/19 02:03:25;;;;;;;8.23;5.63;;;;;;;19.79;64.51;96228.06;5114731;27;20052;-66
2023/06/19 02:05:52;;;;;;;6.38;5.40;;;;;;;19.75;64.26;96237.25;5114590;28;20113;-67
2023/06/19 02:08:20;;;;;;;8.05;6.40;;;;;;;19.78;63.73;96243.13;5114691;28;20048;-66
2023/06/19 02:10:47;;;;;;;6.88;5.82;;;;;;;19.79;63.66;96241.31;5114634;28;20044;-69
2023/06/19 02:13:14;;;;;;;7.00;5.72;;;;;;;19.82;64.25;96233.97;5114118;28;20134;-66
2023/06/19 02:15:42;;;;;;;6.68;5.68;;;;;;;19.85;63.97;96240.84;5114545;28;20550;-66
2023/06/19 02:18:10;;;;;;;6.47;5.53;;;;;;;19.83;64.11;96238.31;5114607;28;20043;-67
2023/06/19 02:20:37;;;;;;;7.25;6.00;;;;;;;19.86;64.04;96231.91;5114452;27;20100;-66
2023/06/19 02:23:04;;;;;;;8.20;5.97;;;;;;;19.85;64.31;96243.47;5114434;28;20447;-67
2023/06/19 02:25:31;;;;;;;9.82;6.10;;;;;;;19.83;64.46;96234.78;5114325;28;20077;-67
2023/06/19 02:27:58;;;;;;;7.30;5.60;;;;;;;19.81;63.96;96234.91;5114253;28;20439;-68
2023/06/19 02:30:25;;;;;;;6.10;5.50;;;;;;;19.80;65.01;96232.38;5114283;28;20054;-69
2023/06/19 02:32:54;;;;;;;7.05;5.85;;;;;;;19.80;64.50;96245.66;5114247;28;20044;-68
2023/06/19 02:35:21;;;;;;;9.45;5.75;;;;;;;19.79;64.36;96247.47;5114193;28;20040;-66
2023/06/19 02:37:49;;;;;;;5.93;5.43;;;;;;;19.85;63.92;96239.97;5114068;28;20044;-68
2023/06/19 02:40:16;;;;;;;10.60;5.53;;;;;;;19.91;63.61;96250.97;5113702;28;20047;-68
2023/06/19 02:42:42;;;;;;;7.53;5.30;;;;;;;19.90;64.37;96251.09;5114140;28;20557;-68
2023/06/19 02:45:10;;;;;;;6.47;5.88;;;;;;;19.80;64.76;96245.66;5114037;27;20096;-66
2023/06/19 02:47:37;;;;;;;9.07;5.43;;;;;;;19.81;64.83;96255.31;5113926;28;20140;-68
2023/06/19 02:50:07;;;;;;;9.00;5.60;;;;;;;19.82;64.43;96263.16;5113984;28;20052;-68
2023/06/19 02:52:34;;;;;;;7.83;5.63;;;;;;;19.86;65.23;96265.56;5113898;28;20058;-68
2023/06/19 02:55:01;;;;;;;8.90;4.97;;;;;;;19.88;64.70;96266.28;5113831;28;20039;-66
2023/06/19 02:57:28;;;;;;;7.28;5.78;;;;;;;19.83;64.75;96267.50;5113843;28;20052;-69
2023/06/19 02:59:55;;;;;;;6.82;5.50;;;;;;;19.82;64.65;96265.81;5113787;28;20047;-68
2023/06/19 03:02:22;;;;;;;7.25;5.57;;;;;;;19.86;64.10;96263.75;5113692;28;20050;-66
2023/06/19 03:04:50;;;;;;;12.38;5.25;;;;;;;19.85;64.06;96264.72;5113786;28;20040;-68
2023/06/19 03:07:18;;;;;;;9.88;6.05;;;;;;;19.90;64.61;96261.69;5113660;28;20489;-67
2023/06/19 03:09:45;;;;;;;7.28;6.35;;;;;;;19.83;64.49;96267.50;5113698;28;20047;-68
2023/06/19 03:12:13;;;;;;;6.50;4.90;;;;;;;19.77;64.46;96275.94;5113614;28;20055;-67
2023/06/19 03:14:40;;;;;;;7.70;5.07;;;;;;;19.74;64.53;96264.75;5113634;28;20050;-68
2023/06/19 03:17:07;;;;;;;10.02;5.30;;;;;;;19.75;64.15;96271.72;5113690;28;20496;-69
2023/06/19 03:19:35;;;;;;;7.13;5.95;;;;;;;19.79;64.23;96275.81;5113633;28;20122;-66
2023/06/19 03:22:03;;;;;;;5.97;5.38;;;;;;;19.80;64.80;96277.50;5113672;28;20047;-66
2023/06/19 03:24:31;;;;;;;5.97;5.13;;;;;;;19.79;65.28;96276.66;5113492;28;20051;-67
2023/06/19 03:26:58;;;;;;;9.32;5.28;;;;;;;19.77;64.18;96283.91;5116865;28;20071;-67
2023/06/19 03:29:26;;;;;;;7.15;5.63;;;;;;;19.70;64.94;96283.56;5117720;28;20055;-67
2023/06/19 03:31:53;;;;;;;5.82;5.18;;;;;;;19.70;65.50;96288.00;5117737;28;20052;-69
2023/06/19 03:34:20;;;;;;;6.28;5.43;;;;;;;19.74;65.06;96284.13;5117625;28;20050;-67
2023/06/19 03:36:47;;;;;;;8.60;5.18;;;;;;;19.78;65.01;96284.75;5117667;28;20051;-66
2023/06/19 03:39:14;;;;;;;6.70;6.00;;;;;;;19.77;66.18;96283.03;5117649;28;20047;-68
2023/06/19 03:41:43;;;;;;;6.60;4.90;;;;;;;19.78;66.60;96285.56;5117366;28;20156;-68
2023/06/19 03:44:11;;;;;;;5.75;5.00;;;;;;;19.82;65.13;96284.38;5117614;28;20047;-67
2023/06/19 03:46:38;;;;;;;7.65;5.60;;;;;;;19.86;65.37;96290.28;5117463;27;20079;-68
2023/06/19 03:49:06;;;;;;;6.43;4.85;;;;;;;19.97;65.58;96283.25;5117423;28;20051;-67
2023/06/19 03:51:33;;;;;;;9.73;5.65;;;;;;;20.01;67.27;96293.53;5117336;28;20056;-67
2023/06/19 03:54:01;;;;;;;6.63;5.90;;;;;;;20.00;66.81;96294.50;5117410;28;20127;-66
2023/06/19 03:56:28;;;;;;;7.35;5.47;;;;;;;20.09;65.56;96292.94;5117309;28;20055;-67
2023/06/19 03:58:57;;;;;;;10.38;5.50;;;;;;;20.15;66.18;96289.78;5117244;28;20050;-67
2023/06/19 04:01:24;;;;;;;5.78;5.20;;;;;;;20.15;68.57;96291.59;5117223;28;20043;-67
2023/06/19 04:03:52;;;;;;;6.60;5.60;;;;;;;20.19;69.96;96298.31;5117101;28;20055;-67
2023/06/19 04:06:19;;;;;;;5.40;4.90;;;;;;;20.25;70.67;96304.94;5117045;28;20054;-67
2023/06/19 04:08:47;;;;;;;10.15;5.97;;;;;;;20.30;71.48;96302.78;5116949;28;20055;-67
2023/06/19 04:11:14;;;;;;;7.85;5.78;;;;;;;20.32;71.05;96300.84;5117015;28;20044;-66
2023/06/19 04:13:41;;;;;;;6.30;5.20;;;;;;;20.25;70.60;96305.81;5117054;27;20135;-67
2023/06/19 04:16:11;;;;;;;6.45;5.75;;;;;;;20.20;66.99;96300.84;5116812;28;20051;-67
2023/06/19 04:18:38;;;;;;;5.93;5.32;;;;;;;20.21;64.88;96304.38;5116940;28;20055;-66
2023/06/19 04:21:06;;;;;;;6.25;5.15;;;;;;;20.26;64.71;96302.16;5116762;28;20047;-68
2023/06/19 04:23:33;;;;;;;5.43;4.93;;;;;;;20.29;65.06;96299.25;5116822;28;20455;-66
2023/06/19 04:26:01;;;;;;;9.15;5.47;;;;;;;20.36;64.20;96301.41;5116634;28;20047;-67
2023/06/19 04:28:29;;;;;;;9.32;6.13;;;;;;;20.42;65.39;96299.13;5116647;28;20100;-67
2023/06/19 04:31:00;;;;;;;6.35;5.72;;;;;;;20.50;62.85;96300.31;5116690;28;20061;-68
2023/06/19 04:33:30;;;;;;;7.53;5.22;;;;;;;20.57;64.41;96301.47;5116492;28;20044;-68
2023/06/19 04:35:57;;;;;;;7.47;6.13;;;;;;;20.64;62.74;96296.47;5116299;28;20508;-68
2023/06/19 04:38:25;;;;;;;6.07;5.57;;;;;;;20.78;63.16;96305.97;5116429;28;20047;-68
2023/06/19 04:40:53;;;;;;;7.32;6.38;;;;;;;20.92;62.97;96307.53;5116145;28;20447;-68
2023/06/19 04:43:20;;;;;;;7.07;5.05;;;;;;;21.27;63.93;96303.66;5116446;28;20052;-67
2023/06/19 04:45:47;;;;;;;6.80;5.90;;;;;;;21.59;61.61;96307.19;5116354;28;20050;-68
2023/06/19 04:48:15;;;;;;;7.43;5.43;;;;;;;21.92;59.04;96307.06;5116201;27;20051;-68
2023/06/19 04:50:44;;;;;;;8.18;6.03;;;;;;;22.16;59.86;96304.06;5116260;28;20051;-68
2023/06/19 04:53:11;;;;;;;9.30;5.43;;;;;;;22.41;59.99;96309.84;5116170;27;20053;-67
2023/06/19 04:55:38;;;;;;;6.53;5.45;;;;;;;22.52;56.42;96311.53;5116149;28;20101;-67
2023/06/19 04:58:06;;;;;;;5.47;4.95;;;;;;;22.58;58.04;96315.50;5116021;28;20043;-68
2023/06/19 05:00:33;;;;;;;5.40;4.88;;;;;;;22.71;57.70;96312.53;5116029;28;20049;-68
2023/06/19 05:03:01;;;;;;;7.28;4.68;;;;;;;22.94;55.59;96317.59;5115945;28;20048;-67
2023/06/19 05:05:29;;;;;;;7.05;5.20;;;;;;;23.15;54.65;96317.41;5116005;27;20054;-67
2023/06/19 05:07:58;;;;;;;6.65;5.63;;;;;;;23.15;53.82;96312.06;5115802;28;20044;-68
2023/06/19 05:10:25;;;;;;;5.18;4.68;;;;;;;23.28;54.67;96313.59;5115807;28;20048;-67
2023/06/19 05:12:52;;;;;;;5.82;5.22;;;;;;;23.73;58.37;96314.75;5115717;28;20048;-67
2023/06/19 05:15:19;;;;;;;5.57;5.07;;;;;;;24.21;55.34;96310.22;5115792;28;20052;-67
2023/06/19 05:17:47;;;;;;;5.10;4.60;;;;;;;24.80;53.14;96316.13;5115969;28;20047;-68
2023/06/19 05:20:14;;;;;;;7.72;5.15;;;;;;;25.36;53.13;96307.88;5115648;27;20122;-67
2023/06/19 05:22:42;;;;;;;6.20;5.15;;;;;;;25.61;51.71;96316.06;5115723;28;20047;-67
2023/06/19 05:25:12;;;;;;;6.57;5.10;;;;;;;25.96;48.73;96316.94;5115554;28;20516;-67
2023/06/19 05:27:39;;;;;;;6.07;5.13;;;;;;;26.25;47.06;96318.34;5115490;27;20506;-68
2023/06/19 05:30:08;;;;;;;5.75;4.80;;;;;;;26.41;46.32;96318.59;5115503;28;20048;-67
2023/06/19 05:32:35;;;;;;;5.95;5.03;;;;;;;26.56;45.70;96325.00;5115426;28;20131;-67
2023/06/19 05:35:02;;;;;;;6.53;5.07;;;;;;;26.34;45.24;96331.81;5115410;28;20043;-67
2023/06/19 05:37:29;;;;;;;6.05;5.45;;;;;;;26.31;46.05;96330.28;5115301;28;20040;-67
2023/06/19 05:39:57;;;;;;;6.07;5.57;;;;;;;26.51;46.77;96326.50;5115339;28;20044;-67
2023/06/19 05:42:25;;;;;;;8.43;5.35;;;;;;;26.24;46.54;96327.41;5115173;27;20126;-67
2023/06/19 05:44:52;;;;;;;5.80;5.30;;;;;;;25.55;46.68;96330.09;5115318;28;20051;-67
2023/06/19 05:47:20;;;;;;;7.25;5.50;;;;;;;25.29;48.24;96333.56;5115145;28;20120;-67
2023/06/19 05:49:48;;;;;;;6.25;5.38;;;;;;;25.19;49.49;96334.50;5114196;28;20043;-67
2023/06/19 05:52:15;;;;;;;6.68;5.90;;;;;;;24.98;50.78;96341.03;5115075;28;20047;-68
2023/06/19 05:54:43;;;;;;;6.95;5.65;;;;;;;24.84;51.39;96336.22;5115018;28;20492;-68
2023/06/19 05:57:11;;;;;;;6.45;5.78;;;;;;;24.83;51.32;96343.38;5114924;28;20498;-68
2023/06/19 05:59:41;;;;;;;9.80;6.18;;;;;;;24.78;52.02;96342.16;5114911;28;20092;-67
2023/06/19 06:02:08;;;;;;;6.30;5.68;;;;;;;24.76;53.13;96344.13;5114842;28;20046;-67
2023/06/19 06:04:36;;;;;;;9.73;5.68;;;;;;;24.69;51.69;96343.91;5114827;28;20130;-67
2023/06/19 06:07:03;;;;;;;7.63;5.30;;;;;;;24.74;51.68;96337.13;5114707;28;20048;-68
2023/06/19 06:09:30;;;;;;;5.80;5.30;;;;;;;24.84;52.16;96339.69;5114604;28;20401;-67
2023/06/19 06:11:57;;;;;;;7.97;4.95;;;;;;;24.85;51.80;96337.88;5114694;27;20117;-67
2023/06/19 06:14:25;;;;;;;5.68;5.18;;;;;;;24.98;50.31;96334.84;5114749;28;20454;-67
2023/06/19 06:16:53;;;;;;;6.15;5.18;;;;;;;25.23;49.64;96338.53;5114654;28;20565;-67
2023/06/19 06:19:22;;;;;;;6.78;4.63;;;;;;;25.42;50.09;96341.19;5114588;27;20101;-68
2023/06/19 06:21:49;;;;;;;6.75;5.32;;;;;;;25.79;50.82;96331.25;5114395;28;20054;-68
2023/06/19 06:24:16;;;;;;;5.95;5.18;;;;;;;26.32;48.69;96347.22;5114285;27;20055;-67
2023/06/19 06:26:43;;;;;;;5.65;5.15;;;;;;;27.04;46.82;96345.88;5114449;28;20067;-68
2023/06/19 06:29:11;;;;;;;4.93;4.43;;;;;;;27.57;45.13;96337.41;5114185;28;20051;-67
2023/06/19 06:31:39;;;;;;;8.88;5.22;;;;;;;28.07;45.84;96348.06;5114413;28;20471;-67
2023/06/19 06:34:08;;;;;;;6.28;4.43;;;;;;;28.35;44.01;96342.25;5114173;28;20122;-68
2023/06/19 06:36:35;;;;;;;5.95;4.40;;;;;;;28.69;41.66;96350.97;5114205;28;20055;-67
2023/06/19 06:39:02;;;;;;;9.15;4.75;;;;;;;29.14;42.14;96343.09;5114102;28;20504;-68
2023/06/19 06:41:29;;;;;;;4.90;4.43;;;;;;;29.51;41.04;96351.34;5114003;28;20049;-67
2023/06/19 06:43:56;;;;;;;4.80;4.40;;;;;;;29.76;40.36;96350.28;5114095;28;20130;-67
2023/06/19 06:46:23;;;;;;;5.30;4.18;;;;;;;29.92;40.16;96346.59;5113992;28;20044;-67
2023/06/19 06:48:51;;;;;;;6.68;4.90;;;;;;;30.01;40.50;96348.16;5113983;28;20048;-67
2023/06/19 06:51:22;;;;;;;4.85;4.18;;;;;;;30.13;38.92;96351.19;5114082;28;20071;-68
2023/06/19 06:53:49;;;;;;;4.80;4.30;;;;;;;30.29;39.25;96343.13;5113961;28;20071;-66
2023/06/19 06:56:16;;;;;;;5.78;5.15;;;;;;;30.40;39.03;96345.34;5113911;28;20332;-68
2023/06/19 06:58:46;;;;;;;7.85;4.47;;;;;;;30.63;39.55;96353.28;5113880;28;20047;-67
2023/06/19 07:01:13;;;;;;;5.20;4.60;;;;;;;30.93;40.24;96349.66;5113660;28;20078;-68
2023/06/19 07:03:40;;;;;;;6.75;4.47;;;;;;;31.03;36.13;96341.22;5113842;28;20059;-68
2023/06/19 07:06:07;;;;;;;10.05;4.28;;;;;;;31.17;37.57;96344.06;5113872;28;20044;-67
2023/06/19 07:08:35;;;;;;;4.90;4.50;;;;;;;31.40;36.57;96349.28;5113655;28;20048;-68
2023/06/19 07:11:03;;;;;;;5.97;4.32;;;;;;;31.12;34.28;96348.19;5113722;28;20048;-68
2023/06/19 07:13:30;;;;;;;4.40;4.00;;;;;;;31.12;36.30;96353.59;5113745;28;20131;-67
2023/06/19 07:15:58;;;;;;;5.03;4.20;;;;;;;31.10;34.96;96354.81;5113551;28;20052;-67
2023/06/19 07:18:25;;;;;;;5.65;4.43;;;;;;;31.09;36.58;96353.97;5113619;28;20570;-68
2023/06/19 07:20:52;;;;;;;4.20;3.80;;;;;;;31.26;35.43;96354.53;5113590;28;20043;-67
2023/06/19 07:23:19;;;;;;;6.75;4.57;;;;;;;31.04;35.59;96347.47;5113491;28;20044;-68
2023/06/19 07:25:48;;;;;;;6.28;4.30;;;;;;;30.87;35.71;96351.28;5113445;28;20039;-67
2023/06/19 07:28:16;;;;;;;6.18;4.18;;;;;;;30.93;36.57;96359.63;5113489;28;20048;-68
2023/06/19 07:30:44;;;;;;;4.85;4.45;;;;;;;31.15;35.25;96365.84;5113534;28;20040;-66
2023/06/19 07:33:11;;;;;;;6.75;4.60;;;;;;;31.23;36.43;96362.19;5113528;28;20477;-67
2023/06/19 07:35:38;;;;;;;4.90;4.38;;;;;;;31.10;35.14;96360.22;5113525;28;20085;-67
2023/06/19 07:38:05;;;;;;;9.35;4.57;;;;;;;31.28;35.47;96365.97;5113433;28;20071;-67
2023/06/19 07:40:32;;;;;;;7.65;4.30;;;;;;;31.09;33.47;96356.66;5113219;28;20063;-68
2023/06/19 07:43:00;;;;;;;4.47;4.07;;;;;;;31.38;34.73;96357.59;5113304;28;20066;-67
2023/06/19 07:45:28;;;;;;;5.18;4.60;;;;;;;31.48;37.62;96368.03;5113340;28;20100;-67
2023/06/19 07:47:56;;;;;;;4.68;4.28;;;;;;;31.65;34.34;96367.75;5113261;28;20071;-68
2023/06/19 07:50:23;;;;;;;6.07;4.45;;;;;;;31.42;32.99;96359.91;5113360;28;20401;-68
2023/06/19 07:52:50;;;;;;;4.43;4.03;;;;;;;31.30;32.88;96368.47;5113408;28;20061;-68
2023/06/19 07:55:17;;;;;;;5.82;4.60;;;;;;;31.17;34.62;96365.66;5113379;28;20451;-68
2023/06/19 07:57:45;;;;;;;4.80;4.00;;;;;;;31.34;33.28;96366.22;5113307;28;20043;-69
2023/06/19 08:00:15;;;;;;;5.68;4.15;;;;;;;31.69;35.97;96374.41;5113291;28;20055;-68
2023/06/19 08:02:42;;;;;;;4.55;3.28;;;;;;;31.15;33.87;96371.25;5113213;28;20152;-68
2023/06/19 08:05:10;;;;;;;4.50;3.65;;;;;;;30.68;33.60;96371.59;5113061;28;20052;-67
2023/06/19 08:07:38;;;;;;;4.18;3.60;;;;;;;30.76;34.10;96376.09;5113074;28;20079;-67
2023/06/19 08:10:06;;;;;;;4.03;3.63;;;;;;;30.85;35.27;96369.53;5113150;28;20087;-67
2023/06/19 08:12:33;;;;;;;4.82;3.75;;;;;;;31.10;36.62;96368.31;5115411;28;20051;-68
2023/06/19 08:15:00;;;;;;;4.18;3.78;;;;;;;30.86;33.25;96370.38;5116894;28;20040;-67
2023/06/19 08:17:29;;;;;;;4.55;3.92;;;;;;;30.36;35.55;96371.84;5116950;28;20047;-67
2023/06/19 08:19:56;;;;;;;4.57;4.07;;;;;;;30.13;35.94;96372.78;5116946;27;20039;-68
2023/06/19 08:22:24;;;;;;;5.18;4.00;;;;;;;30.11;35.73;96369.44;5116835;28;20044;-67
2023/06/19 08:24:51;;;;;;;6.38;4.00;;;;;;;29.86;35.77;96377.78;5116821;28;20067;-67
2023/06/19 08:27:18;;;;;;;5.75;4.05;;;;;;;29.70;36.17;96378.81;5116658;28;20105;-67
2023/06/19 08:29:46;;;;;;;6.65;4.20;;;;;;;29.99;34.34;96377.16;5116630;28;20086;-67
2023/06/19 08:32:14;;;;;;;5.10;3.85;;;;;;;30.05;33.53;96374.72;5116650;27;20055;-67
2023/06/19 08:34:42;;;;;;;6.13;3.67;;;;;;;30.14;36.14;96371.78;5116486;28;20044;-67
2023/06/19 08:37:10;;;;;;;13.27;3.67;;;;;;;29.88;35.31;96372.22;5116533;28;20048;-67
2023/06/19 08:39:38;;;;;;;4.35;3.42;;;;;;;30.16;37.86;96384.22;5116435;28;20481;-67
2023/06/19 08:42:07;;;;;;;6.68;3.90;;;;;;;29.92;37.62;96383.47;5116321;28;20122;-67
2023/06/19 08:44:35;;;;;;;4.40;3.80;;;;;;;30.00;37.69;96386.06;5116375;28;20047;-67
2023/06/19 08:47:04;;;;;;;5.20;3.83;;;;;;;30.06;35.90;96379.94;5116360;28;20459;-67
2023/06/19 08:49:33;;;;;;;5.25;4.25;;;;;;;30.29;36.77;96383.56;5116201;28;20048;-67
2023/06/19 08:52:02;;;;;;;5.20;3.42;;;;;;;30.48;35.11;96390.25;5116239;28;20055;-68
2023/06/19 08:54:29;;;;;;;8.85;3.53;;;;;;;30.33;35.98;96384.88;5116106;28;20046;-67
2023/06/19 08:56:56;;;;;;;3.70;3.28;;;;;;;30.30;35.62;96387.94;5116127;28;20156;-67
2023/06/19 08:59:23;;;;;;;7.13;3.40;;;;;;;30.52;36.79;96384.28;5116222;28;20039;-67
2023/06/19 09:01:53;;;;;;;5.07;3.58;;;;;;;30.76;33.83;96385.00;5116025;28;20043;-68
2023/06/19 09:04:22;;;;;;;5.50;3.38;;;;;;;30.80;35.18;96384.63;5115996;28;20047;-68
2023/06/19 09:06:49;;;;;;;8.07;2.80;;;;;;;30.74;34.05;96378.94;5115898;28;20048;-67
2023/06/19 09:09:20;;;;;;;4.00;3.50;;;;;;;30.67;34.15;96382.59;5115799;27;20059;-67
2023/06/19 09:11:57;;;;;;;;;;;;;;;30.14;34.55;96381.72;5116243;28;20051;-67
2023/06/19 09:14:32;;;;;;;3.67;3.30;;;;;;;29.81;34.57;96387.44;5115796;28;19972;-67
2023/06/19 09:16:59;;;;;;;4.55;3.15;;;;;;;29.43;34.58;96382.91;5115739;28;20130;-68
2023/06/19 09:19:26;;;;;;;3.50;3.20;;;;;;;29.39;35.17;96388.66;5115788;28;20091;-67
2023/06/19 09:21:53;;;;;;;4.20;3.00;;;;;;;29.04;35.52;96377.50;5115607;28;20044;-67
2023/06/19 09:24:24;;;;;;;5.88;4.00;;;;;;;28.42;37.08;96377.34;5114347;28;20043;-67
2023/06/19 09:26:52;;;;;;;7.63;3.65;;;;;;;28.49;40.03;96381.00;5115562;28;20047;-67
2023/06/19 09:29:20;;;;;;;3.90;3.50;;;;;;;28.41;38.23;96377.53;5115480;28;20053;-66
2023/06/19 09:31:47;;;;;;;4.38;3.70;;;;;;;28.40;38.78;96376.66;5115489;28;20076;-67
2023/06/19 09:34:14;;;;;;;4.00;3.55;;;;;;;28.44;37.08;96385.25;5115625;28;20481;-67
2023/06/19 09:36:41;;;;;;;7.03;4.43;;;;;;;28.42;37.41;96371.97;5115390;28;20059;-67
2023/06/19 09:39:10;;;;;;;4.75;3.40;;;;;;;28.68;39.26;96378.06;5115337;28;20062;-68
2023/06/19 09:41:40;;;;;;;3.70;3.15;;;;;;;28.70;39.88;96373.31;5115005;28;20047;-66
2023/06/19 09:44:12;;;;;;;5.28;3.60;;;;;;;28.47;39.00;96374.94;5115269;28;20550;-67
2023/06/19 09:46:42;;;;;;;7.38;4.20;;;;;;;28.31;41.10;96383.09;5115180;28;20420;-67
2023/06/19 09:49:11;;;;;;;4.85;3.72;;;;;;;28.55;39.37;96375.91;5115078;28;20172;-66
2023/06/19 09:51:42;;;;;;;5.72;3.83;;;;;;;28.85;37.23;96368.84;5115129;28;20048;-67
2023/06/19 09:54:11;;;;;;;5.93;3.75;;;;;;;29.14;38.47;96377.25;5115080;28;20126;-67
2023/06/19 09:56:40;;;;;;;4.65;3.83;;;;;;;29.18;38.58;96373.19;5114921;28;20047;-67
2023/06/19 09:59:09;;;;;;;5.38;3.92;;;;;;;29.14;37.53;96377.25;5114913;28;20134;-67
2023/06/19 10:01:38;;;;;;;3.30;3.00;;;;;;;29.04;37.71;96379.38;5114972;28;20055;-68
2023/06/19 10:04:06;;;;;;;3.60;3.30;;;;;;;28.92;40.13;96373.53;5114802;28;20050;-67
2023/06/19 10:06:34;;;;;;;5.90;4.40;;;;;;;28.74;40.41;96372.78;5114831;28;20051;-67
2023/06/19 10:09:11;;;;;;;4.10;3.70;;;;;;;28.69;38.59;96380.56;5114616;28;20490;-67
2023/06/19 10:11:52;;;;;;;6.65;4.72;;;;;;;28.62;42.15;96371.50;5114758;28;20051;-67
2023/06/19 10:14:19;;;;;;;8.32;4.78;;;;;;;28.70;45.37;96374.16;5114626;28;20127;-67
2023/06/19 10:16:46;;;;;;;5.30;4.80;;;;;;;28.51;43.74;96364.69;5114631;28;20048;-67
2023/06/19 10:19:16;;;;;;;7.65;5.22;;;;;;;28.25;43.83;96357.72;5114483;28;20047;-67
2023/06/19 10:21:48;;;;;;;5.80;4.68;;;;;;;28.09;44.29;96362.16;5114441;28;20122;-68
2023/06/19 10:24:19;;;;;;;5.03;3.88;;;;;;;27.97;44.81;96358.16;5114449;28;20078;-67
2023/06/19 10:26:59;;;;;;;9.70;4.50;;;;;;;27.97;44.93;96367.09;5114402;28;20052;-67
2023/06/19 10:29:27;;;;;;;8.63;3.80;;;;;;;27.93;45.43;96354.97;5114309;28;20048;-67
2023/06/19 10:31:56;;;;;;;3.85;3.55;;;;;;;27.98;46.31;96351.78;5114310;28;20044;-67
2023/06/19 10:34:33;;;;;;;5.40;3.80;;;;;;;28.08;46.78;96346.22;5113954;28;20067;-67
2023/06/19 10:37:00;;;;;;;4.50;4.10;;;;;;;28.08;44.74;96349.72;5114176;28;20048;-67
2023/06/19 10:39:28;;;;;;;4.95;3.65;;;;;;;28.44;44.00;96352.97;5114039;28;20047;-67
2023/06/19 10:41:55;;;;;;;6.95;3.90;;;;;;;28.53;44.05;96351.88;5114042;28;20528;-67
2023/06/19 10:44:26;;;;;;;4.30;3.85;;;;;;;28.56;44.49;96351.53;5114120;28;20051;-68
2023/06/19 10:46:54;;;;;;;7.10;3.78;;;;;;;28.41;44.60;96359.50;5114035;28;20075;-68
2023/06/19 10:49:22;;;;;;;5.90;4.32;;;;;;;28.26;44.37;96360.25;5113880;28;20047;-67
2023/06/19 10:51:50;;;;;;;4.65;4.03;;;;;;;28.06;45.61;96370.56;5113869;28;20044;-67
2023/06/19 10:54:17;;;;;;;5.43;4.22;;;;;;;27.83;44.83;96362.41;5113824;28;20056;-68
2023/06/19 10:56:47;;;;;;;8.23;4.75;;;;;;;27.83;46.05;96348.97;5113897;28;20481;-68
2023/06/19 10:59:15;;;;;;;4.90;4.30;;;;;;;27.82;47.14;96353.53;5113790;28;20413;-67
2023/06/19 11:01:45;;;;;;;4.65;4.10;;;;;;;27.67;48.57;96347.16;5113766;28;20039;-67
2023/06/19 11:04:14;;;;;;;5.50;3.80;;;;;;;28.08;47.20;96338.97;5113811;28;20488;-67
2023/06/19 11:06:43;;;;;;;4.30;3.70;;;;;;;28.47;44.84;96342.69;5113685;28;20048;-67
2023/06/19 11:09:12;;;;;;;5.97;4.20;;;;;;;28.58;44.24;96340.59;5113583;28;20051;-67
2023/06/19 11:11:40;;;;;;;4.75;4.30;;;;;;;28.76;45.02;96338.47;5113753;28;20096;-68
2023/06/19 11:14:09;;;;;;;5.85;4.15;;;;;;;29.00;44.68;96335.81;5113821;28;20043;-67
2023/06/19 11:16:41;;;;;;;6.68;4.07;;;;;;;29.14;44.66;96335.00;5113578;28;20412;-67
2023/06/19 11:19:10;;;;;;;5.30;3.85;;;;;;;29.31;44.96;96344.81;5113668;28;20527;-68
2023/06/19 11:21:39;;;;;;;4.65;3.50;;;;;;;29.30;42.42;96340.44;5113487;28;20086;-67
2023/06/19 11:24:07;;;;;;;5.40;3.85;;;;;;;29.42;44.07;96330.91;5113520;28;20059;-67
2023/06/19 11:26:39;;;;;;;4.35;3.95;;;;;;;29.61;43.00;96343.03;5113614;28;20077;-67
2023/06/19 11:29:16;;;;;;;4.45;4.05;;;;;;;29.62;42.19;96333.09;5113437;28;20565;-67
2023/06/19 11:31:43;;;;;;;5.47;4.00;;;;;;;29.76;41.95;96329.56;5113592;28;20497;-68
2023/06/19 11:34:12;;;;;;;8.60;4.25;;;;;;;29.80;42.05;96323.81;5113498;28;20553;-67
2023/06/19 11:36:40;;;;;;;7.03;4.03;;;;;;;29.80;41.74;96324.66;5113564;28;20076;-67
2023/06/19 11:39:13;;;;;;;5.25;3.95;;;;;;;29.60;41.77;96325.19;5113450;28;20097;-68